MapTableWeb Map

Choose a state:
Most recent flow and stage for Wyoming
(Stations highlighted in red are currently above flood stage)
USGS
station
ID
USGS station name NWS
flood
stage
(ft)
Most recent
stage
(ft)
Most recent
flow
(cfs)
Historical
peaks
(cfs)
Most recent
local
date/time
NWS
station
ID
06036805 Firehole River at Old Faithful, YNP   2.61 67.9 477 2017-08-22 04:00:00  
06036905 Firehole River near West Yellowstone MT   3.16 271 2,050 2017-08-22 03:00:00  
06036940 Tantalus Creek at Norris Junction, YNP   1.47 3.49 25 2017-08-22 03:30:00  
06037100 Gibbon River at Madison Jct, YNP   4.65 121 1,010 2017-08-22 03:00:00 GMJW4
06186500 Yellowstone River at Yellowstone Lk Outlet YNP 9 4.93 2,170 9,950 2017-08-22 03:30:00 YLOW4
06188000 Lamar River nr Tower Ranger Station YNP 15 1.60 235 19,500 2017-08-22 03:15:00 TFLW4
06190540 Boiling River at Mammoth,YNP   1.10 22.8 36 2017-08-22 03:15:00  
06218500 WIND RIVER NEAR DUBOIS, WY 5 2.84 143 2,040 2017-08-22 03:15:00 DUBW4
06220800 WIND RIVER ABOVE RED CREEK, NEAR DUBOIS, WY 9.5 3.54 644 11,300 2017-08-22 03:45:00 WRCW4
06221400 DINWOODY CREEK ABOVE LAKES, NEAR BURRIS, WY   3.29 204 1,530 2017-08-22 03:45:00  
06224000 BULL LAKE CREEK ABOVE BULL LAKE, WY   3.42 424 4,470 2017-08-22 03:15:00  
06225000 BULL LAKE CREEK NEAR LENORE, WY 8.0 2.78 557 6,200 2017-08-22 03:15:00
06225500 WIND RIVER NEAR CROWHEART, WY 10 6.41 1,310 14,700 2017-08-22 03:15:00 CROW4
06227600 WIND RIVER NEAR KINNEAR, WY 9 4.13 223 16,600 2017-08-22 04:00:00 KINW4
06228000 WIND RIVER AT RIVERTON, WY 9 2.65 213 13,300 2017-08-22 03:15:00 WDRW4
06228350 SF L WIND RIV AB WASHAKIE RES, NR FT WASHAKIE, WY   3.03 120 2,230 2017-08-22 03:30:00  
06233000 LITTLE POPO AGIE RIVER NEAR LANDER, WY 5.5 2.81 62.5 2,010 2017-08-22 03:30:00 LPLW4
06235500 LITTLE WIND RIVER NEAR RIVERTON, WY 8 2.94 437 14,700 2017-08-22 03:15:00 RVTW4
06253000 FIVEMILE CREEK NEAR SHOSHONI, WY   3.52 327 3,500 2017-08-22 04:00:00  
06259000 WIND RIVER BELOW BOYSEN RESERVOIR, WY   5.69 *** 28,700 2017-08-22 03:00:00  
06268600 BIGHORN RIVER AT WORLAND, WY   6.37 2,340 15,900 2017-08-22 03:00:00  
06274300 BIGHORN RIVER AT BASIN, WY 10.5 4.04 2,010 19,500 2017-08-22 03:15:00 BHBW4
06276500 GREYBULL RIVER AT MEETEETSE, WY 7.5 3.26 390 13,600 2017-08-22 03:45:00 MEEW4
06278300 SHELL CREEK ABOVE SHELL CREEK RESERVOIR, WY   1.06 6.28 1,870 2017-08-22 03:45:00  
06278500 SHELL CREEK NEAR SHELL, WY 6.5 1.90 102 4,850 2017-08-22 03:45:00 SHEW4
06279500 BIGHORN RIVER AT KANE, WY   2.95 2,190 25,200 2017-08-22 03:15:00 LVEW4
06279940 NORTH FORK SHOSHONE RIVER AT WAPITI, WY 8 2.77 593 11,200 2017-08-22 03:15:00 NFSW4
06280300 SOUTH FORK SHOSHONE RIVER NEAR VALLEY, WY 9 5.10 376 10,000 2017-08-22 04:00:00 VLYW4
06281000 SOUTH FORK SHOSHONE RIVER AB BUFFALO BILL RES, WY 9.5 5.05 34.7 9,960 2017-08-22 04:00:00 BBRW4
06282000 SHOSHONE RIVER BELOW BUFFALO BILL RESERVOIR, WY   4.72 *** 17,300 2017-08-22 03:00:00  
06285100 SHOSHONE RIVER NEAR LOVELL, WY 11 4.99 591 16,400 2017-08-22 03:45:00 SLOW4
06289600 WEST PASS CREEK NEAR PARKMAN, WY   1.49 6.77 534 2017-08-22 04:00:00 WPPW4
06289820 EAST PASS CREEK NEAR DAYTON, WY   9.36 9.56 755 2017-08-22 04:00:00 EPCW4
06297500 HIGHLINE DITCH NEAR DAYTON, WY   1.73 19.4   2017-08-22 03:00:00  
06298000 TONGUE RIVER NEAR DAYTON, WY   2.03 89.5 3,400 2017-08-22 04:00:00 DAYW4
06299980 TONGUE RIVER AT MONARCH, WY   2.31 74.5 3,910 2017-08-22 04:00:00 TRMW4
06305700 GOOSE CREEK NEAR ACME, WY   2.74 55.2 3,430 2017-08-22 03:45:00  
06309200 MIDDLE FORK POWDER RIVER NEAR BARNUM, WY 10.5 5.15 9.26 7,110 2017-08-22 04:00:00 MFBW4
06311000 NORTH FORK POWDER RIVER NEAR HAZELTON, WY   2.16 4.19 886 2017-08-22 04:00:00  
06311400 NF POWDER RIVER BELOW PASS CREEK, NR MAYOWORTH, WY   4.53 58.8 1,590 2017-08-22 04:00:00  
06313500 POWDER RIVER AT SUSSEX, WY 11 2.01 17.9 32,500 2017-08-22 03:15:00 SXXW4
06317000 POWDER RIVER AT ARVADA, WY 8.5 1.83 68.9 100,000 2017-08-22 03:30:00 ARVW4
06317020 WILD HORSE CREEK NEAR ARVADA, WY   0.06 0.00 737 2017-06-18 10:30:00 WHCW4
06318500 CLEAR CREEK NEAR BUFFALO, WY 6.5 1.89 55.2 3,420 2017-08-22 03:00:00 CCBW4
06324970 LITTLE POWDER RIVER AB DRY CREEK, NEAR WESTON, WY 13 1.66 0.26 5,300 2017-08-22 03:00:00 LPTW4
06386500 CHEYENNE RIVER NEAR SPENCER, WY   4.13 1.95 16,000 2017-08-22 03:45:00  
06392900 BEAVER CREEK AT MALLO CAMP, NEAR FOUR CORNERS, WY 6 1.06 1.76 154 2017-08-22 03:00:00 CMPW4
06392950 STOCKADE BEAVER CREEK NEAR NEWCASTLE, WY 12.5 7.01 16.1 776 2017-08-22 03:15:00 BCNW4
06425720 BELLE FOURCHE R BL RATTLESNAKE C, NR PINEY, WY   1.13 0.00 4,100 2017-08-22 04:00:00  
06426500 BELLE FOURCHE RIVER BELOW MOORCROFT, WY 13 1.11 3.51 15,300 2017-08-22 03:15:00 BFRW4
06429500 COLD SPRINGS CREEK AT BUCKHORN, WY 8 2.24 4.89 42 2017-08-22 03:00:00 HRNW4
06429905 SAND CREEK NEAR RANCH A, NEAR BEULAH, WY   1.72 23.7 1,230 2017-08-22 03:45:00 SNDW4
06620000 NORTH PLATTE RIVER NEAR NORTHGATE, CO 8 2.66 139 6,720 2017-08-22 03:45:00 NGTC2
06622700 NORTH BRUSH CREEK NEAR SARATOGA, WY   2.14 9.03 1,550 2017-08-22 03:30:00  
06622900 SOUTH BRUSH CREEK NEAR SARATOGA, WY   2.42 8.56 1,230 2017-08-22 03:15:00  
06623800 ENCAMPMENT RIVER AB HOG PARK CR, NR ENCAMPMENT, WY 5.5 1.21 32.8 2,280 2017-08-22 03:30:00 HOGW4
06625000 ENCAMPMENT RIVER AT MOUTH, NEAR ENCAMPMENT, WY 6.5 1.76 43.4 4,720 2017-08-22 03:30:00 ECRW4
06630000 N PLATTE RIV AB SEMINOE RESERVOIR, NR SINCLAIR, WY 9 3.32 370 16,700 2017-08-22 03:45:00 SINW4
06630465 Medicine Bow R ab E Fk Med Bow nr Elk Mountain, WY 7 3.65 10.9 1,300 2017-08-22 03:45:00 MBRW4
06632400 ROCK CREEK AB KING CANYON CANAL, NR ARLINGTON, WY 6 0.72 16.8 2,800 2017-08-22 03:15:00 KCRW4
06634060 L Medicine Bow R ab Sand Cr, nr Shirley Basin, WY   1.16 1.40 569 2017-08-22 03:45:00  
06634620 L MEDICINE BOW R AT BOLES SPRING, NR MEDICINE BOW 8 0.94 7.43 1,900 2017-08-22 03:30:00 LMBW4
06635000 MEDICINE BOW R AB SEMINOE RESERVOIR, NR HANNA, WY 6 2.25 30.0 6,010 2017-08-22 03:45:00 HANW4
06638090 SWEETWATER RIVER NEAR SWEETWATER STATION, WY 7 1.94 51.1 5,750 2017-08-22 03:30:00 SWSW4
06639000 SWEETWATER RIVER NEAR ALCOVA, WY   2.18 79.5 4,290 2017-08-22 03:45:00 SWEW4
06646000 DEER CREEK IN CANYON, NEAR GLENROCK, WY   2.02 3.81 4,240 2017-08-22 03:45:00  
06652000 NORTH PLATTE RIVER AT ORIN, WY 8 4.69 2,060 23,800 2017-08-22 03:45:00 ORIW4
06657000 NORTH PLATTE RIVER BELOW WHALEN DIVERSION DAM, WY   6.31 1,410 22,000 2017-08-22 03:00:00  
06659580 SAND CREEK AT COLORADO-WYOMING STATE LINE   0.42 2.22 6,710 2017-08-22 03:45:00  
06660000 LARAMIE RIVER AT LARAMIE, WY 9 3.53 22.0 3,250 2017-08-22 03:00:00 LLRW4
06670500 LARAMIE RIVER NEAR FORT LARAMIE, WY 7 2.61 53.9 6,260 2017-08-22 04:00:00 FLAW4
06674500 NORTH PLATTE RIVER AT WYOMING-NEBRASKA STATE LINE 5.5 3.30 1,260 17,900 2017-08-22 03:45:00 HENN1
06755960 CROW CREEK AT 19TH STREET, AT CHEYENNE, WY 8 1.46 1.23 769 2017-08-22 03:15:00 FEWW4
09188500 GREEN RIVER AT WARREN BRIDGE, NEAR DANIEL, WY 6 2.40 460 5,930 2017-08-22 03:45:00 WBRW4
09196500 PINE CREEK ABOVE FREMONT LAKE, WY   3.24 229 2,570 2017-08-22 03:45:00 FRAW4
09205000 NEW FORK RIVER NEAR BIG PINEY, WY 8 2.66 556 9,190 2017-08-22 04:00:00 BPNW4
09209400 GREEN RIVER NEAR LA BARGE, WY 9 5.56 1,330 18,800 2017-08-22 04:00:00 LABW4
09210500 FONTENELLE C NR HERSCHLER RANCH, NR FONTENELLE, WY 11.5 5.61 65.5 907 2017-08-22 03:45:00 FCHW4
09211200 GREEN RIVER BELOW FONTENELLE RESERVOIR, WY 16.5 12.49 2,520 19,400 2017-08-22 04:00:00 GBFW4
09213500 BIG SANDY RIVER NEAR FARSON, WY   1.25 Mnt 1,890 2017-08-22 04:00:00 BSRW4
09213700 BIG SANDY RESERVOIR NEAR FARSON, WY   6753.93

 

  2017-08-22 03:00:00  
09215000 PACIFIC CREEK NEAR FARSON, WY   4.77 0.34 972 2017-08-22 03:45:00  
09217000 GREEN RIVER NEAR GREEN RIVER, WY 7 2.77 2,040 22,200 2017-08-22 03:30:00 GRRW4
09217900 BLACKS FORK NEAR ROBERTSON, WY 5 2.02 60.3 3,780 2017-08-22 04:00:00 BNRU1
09218500 BLACKS FORK NEAR MILLBURNE, WY   3.04 180 2,530 2017-08-22 04:00:00  
09220000 EAST FORK OF SMITHS FORK NEAR ROBERTSON, WY   4.39 73.4 1,450 2017-08-22 03:15:00 SFRW4
09223000 HAMS FORK BELOW POLE CREEK, NEAR FRONTIER, WY 6.5 3.02 24.0 2,230 2017-08-22 03:45:00 HMFW4
09224700 BLACKS FORK NEAR LITTLE AMERICA, WY 10.5 3.57 77.3 9,980 2017-08-22 03:00:00 LTAW4
09229500 HENRYS FORK NEAR MANILA, UT 7 3.07 43.2 6,750 2017-08-22 03:15:00 HFMW4
09257000 LITTLE SNAKE RIVER NEAR DIXON, WY 9.5 1.95 9.18 13,000 2017-08-22 04:00:00 LSDW4
09258050 Muddy Creek above Olson Draw, near Dad, WY   2.98 1.23 465 2017-08-22 03:30:00  
09258980 MUDDY CREEK BELOW YOUNG DRAW, NEAR BAGGS, WY   2.05 0.89 755 2017-08-22 03:00:00  
10016900 BEAR RIVER AT EVANSTON, WY 7 0.85 46.8 3,890 2017-08-22 03:00:00 EVAW4
10020100 BEAR RIVER ABOVE RESERVOIR, NEAR WOODRUFF, UT   0.29 2.65 4,150 2017-08-22 03:45:00 BEAW4
10020300 BEAR RIVER BELOW RESERVOIR, NEAR WOODRUFF, UT   2.89 52.0 3,820 2017-08-22 03:45:00 BRWU1
10028500 BEAR RIVER BELOW PIXLEY DAM, NEAR COKEVILLE, WY 8.5 2.24 107 2,300 2017-08-22 03:15:00 PIXW4
10032000 SMITHS FORK NEAR BORDER, WY 5.5 1.45 169 2,100 2017-08-22 03:30:00 BORW4
10038000 BEAR RIVER BLW SMITHS FORK, NR COKEVILLE, WY 6 3.07 294 5,620 2017-08-22 03:30:00 COKW4
13010065 SNAKE RIVER AB JACKSON LAKE AT FLAGG RANCH WY 10 2.83 494 15,000 2017-08-22 03:30:00 FLGW4
13011000 SNAKE RIVER NR MORAN WY 24 5.44 2,200 15,100 2017-08-22 03:45:00 JLKW4
13011500 PACIFIC CREEK AT MORAN WY 8 4.64 85.6 5,790 2017-08-22 03:30:00 PACW4
13011900 BUFFALO FORK AB LAVA CREEK NR MORAN WY 8.5 1.53 432 6,540 2017-08-22 03:30:00 BFKW4
13013650 SNAKE RIVER AT MOOSE, WY 15 10.23 3,660 25,300 2017-08-22 03:00:00 MSEW4
13014500 GROS VENTRE RIVER AT KELLY, WY   4.32 396 6,960 2017-08-22 03:00:00  
13015000 GROS VENTRE RIVER AT ZENITH WY   16.99 40.5 6,170 2017-08-22 03:15:00 GVZW4
13016305 GRANITE C AB GRANITE C SUPPLEMENTAL, NR MOOSE, WY   4.39 20.6 599 2017-08-22 03:00:00  
13016450 FISH CREEK AT WILSON, WY 6.0 3.68 500 1,430 2017-08-22 04:00:00
13018300 CACHE CREEK NEAR JACKSON, WY   3.66 15.2 225 2017-08-22 03:45:00  
13018350 FLAT CREEK BELOW CACHE CREEK, NEAR JACKSON, WY 6.0 2.07 123 315 2017-08-22 03:45:00
13018750 SNAKE RIVER BL FLAT CREEK NR JACKSON WY 10 3.28 4,090 30,200 2017-08-22 03:30:00 JKSW4
13019438 LITTLE GRANITE CREEK AT MOUTH NR BONDURANT, WY  

 

4.50 876 1992-10-27 23:45:00  
13022500 SNAKE RIVER AB RESERVOIR NR ALPINE WY   4.87 4,940 38,600 2017-08-22 03:30:00 ALPW4
13023000 GREYS RIVER AB RESERVOIR NR ALPINE WY   1.93 598 7,230 2017-08-22 03:30:00 GREW4
13025500 CROW CREEK NEAR FAIRVIEW, WY   2.48 80.0 346 2017-08-22 03:45:00  
13027500 SALT RIVER AB RESERVOIR NR ETNA WY 5.5 2.29 692 5,090 2017-08-22 03:30:00 SALW4
13046680 BOUNDARY CREEK NR BECHLER RANGER STATION Y.N.P. WY  

 

83.0 810 2004-09-30 23:45:00